createdAt,value
2019-03-22T00:00:33.623Z,78.30
2019-03-22T00:03:01.776Z,77.70
2019-03-22T00:05:31.031Z,77.10
2019-03-22T00:08:00.325Z,76.80
2019-03-22T00:10:28.451Z,76.20
2019-03-22T00:12:56.679Z,75.90
2019-03-22T00:15:24.667Z,75.60
2019-03-22T00:18:04.978Z,75.40
2019-03-22T00:20:34.428Z,75.30
2019-03-22T00:23:05.365Z,75.50
2019-03-22T00:25:33.447Z,75.50
2019-03-22T00:28:01.627Z,75.90
2019-03-22T00:30:29.813Z,76.40
2019-03-22T00:32:57.837Z,76.70
2019-03-22T00:35:25.897Z,76.80
2019-03-22T00:37:53.985Z,77.10
2019-03-22T00:40:22.037Z,76.90
2019-03-22T00:42:50.191Z,76.60
2019-03-22T00:45:18.123Z,76.00
2019-03-22T00:47:46.192Z,75.20
2019-03-22T00:50:14.521Z,76.10
2019-03-22T00:52:42.605Z,75.60
2019-03-22T00:55:10.704Z,76.20
2019-03-22T00:57:38.693Z,76.80
2019-03-22T01:00:08.430Z,77.40
2019-03-22T01:02:36.563Z,77.90
2019-03-22T01:05:07.022Z,77.90
2019-03-22T01:07:35.128Z,78.10
2019-03-22T01:10:04.004Z,78.40
2019-03-22T01:12:32.128Z,78.20
2019-03-22T01:15:00.330Z,77.90
2019-03-22T01:17:28.556Z,78.00
2019-03-22T01:19:56.689Z,78.10
2019-03-22T01:22:26.828Z,77.70
2019-03-22T01:24:54.955Z,77.50
2019-03-22T01:27:23.212Z,77.60
2019-03-22T01:29:51.331Z,77.00
2019-03-22T01:32:20.636Z,77.60
2019-03-22T01:34:48.706Z,78.00
2019-03-22T01:37:16.856Z,77.70
2019-03-22T01:39:45.084Z,77.50
2019-03-22T01:42:13.289Z,77.60
2019-03-22T01:44:53.286Z,77.90
2019-03-22T01:47:21.552Z,78.30
2019-03-22T01:49:49.796Z,78.70
2019-03-22T01:54:46.522Z,77.60
2019-03-22T01:57:14.699Z,77.10
2019-03-22T01:59:42.846Z,76.90
2019-03-22T02:02:10.862Z,76.90
2019-03-22T02:04:38.970Z,77.20
2019-03-22T02:07:07.102Z,77.20
2019-03-22T02:09:35.266Z,77.90
2019-03-22T02:12:04.559Z,78.50
2019-03-22T02:14:32.634Z,78.40
2019-03-22T02:17:00.724Z,77.80
2019-03-22T02:19:28.825Z,77.20
2019-03-22T02:21:57.019Z,76.90
2019-03-22T02:24:25.087Z,77.00
2019-03-22T02:26:53.171Z,77.80
2019-03-22T02:29:21.301Z,77.90
2019-03-22T02:31:49.425Z,78.10
2019-03-22T02:34:19.177Z,78.20
2019-03-22T02:36:47.214Z,78.60
2019-03-22T02:39:15.467Z,78.90
2019-03-22T02:41:43.601Z,79.20
2019-03-22T02:44:11.629Z,79.20
2019-03-22T02:46:39.727Z,79.70
2019-03-22T02:49:07.738Z,80.10
2019-03-22T02:51:36.004Z,79.70
2019-03-22T02:54:04.134Z,79.20
2019-03-22T02:56:33.929Z,78.90
2019-03-22T02:59:02.005Z,78.90
2019-03-22T03:01:30.321Z,78.80
2019-03-22T03:03:58.385Z,78.30
2019-03-22T03:06:26.592Z,77.70
2019-03-22T03:08:54.704Z,77.10
2019-03-22T03:11:23.841Z,76.10
2019-03-22T03:13:51.910Z,76.80
2019-03-22T03:16:20.076Z,77.10
2019-03-22T03:18:48.179Z,77.10
2019-03-22T03:21:16.318Z,77.10
2019-03-22T03:23:44.378Z,77.30
2019-03-22T03:26:12.599Z,77.30
2019-03-22T03:28:40.688Z,78.10
2019-03-22T03:31:08.831Z,78.00
2019-03-22T03:33:37.088Z,78.30
2019-03-22T03:36:06.234Z,78.10
2019-03-22T03:38:34.345Z,78.40
2019-03-22T03:41:02.545Z,79.70
2019-03-22T03:43:30.630Z,80.40
2019-03-22T03:45:58.811Z,80.50
2019-03-22T03:48:28.669Z,80.70
2019-03-22T03:50:56.565Z,80.80
2019-03-22T03:53:24.708Z,81.20
2019-03-22T03:55:52.882Z,81.80
2019-03-22T03:58:21.010Z,82.30
2019-03-22T04:00:48.997Z,83.20
2019-03-22T04:03:17.188Z,84.00
2019-03-22T04:05:45.442Z,84.40
2019-03-22T04:08:13.732Z,84.80
2019-03-22T04:10:41.884Z,85.70
2019-03-22T04:13:09.982Z,86.60
2019-03-22T04:15:38.068Z,87.80
2019-03-22T04:18:06.190Z,88.00
2019-03-22T04:20:35.389Z,88.90
2019-03-22T04:23:03.675Z,89.70
2019-03-22T04:25:32.846Z,89.80
2019-03-22T04:28:01.032Z,90.00
2019-03-22T04:30:30.411Z,90.40
2019-03-22T04:32:58.434Z,90.50
2019-03-22T04:35:26.411Z,90.70
2019-03-22T04:37:54.606Z,91.00
2019-03-22T04:40:24.294Z,91.30
2019-03-22T04:42:52.796Z,91.30
2019-03-22T04:45:21.519Z,91.10
2019-03-22T04:47:52.075Z,91.00
2019-03-22T04:50:21.313Z,91.00
2019-03-22T04:52:51.080Z,91.00
2019-03-22T04:55:19.783Z,91.10
2019-03-22T04:57:49.114Z,91.10
2019-03-22T05:00:17.995Z,91.10
2019-03-22T05:02:47.008Z,91.00
2019-03-22T05:05:15.073Z,91.00
2019-03-22T05:07:43.808Z,91.00
2019-03-22T05:10:15.169Z,91.10
2019-03-22T05:12:45.359Z,91.20
2019-03-22T05:15:16.783Z,91.30
2019-03-22T05:17:45.752Z,91.30
2019-03-22T05:20:15.393Z,91.10
2019-03-22T05:22:44.736Z,90.90
2019-03-22T05:25:13.041Z,90.90
2019-03-22T05:27:43.905Z,91.10
2019-03-22T05:30:47.781Z,91.40
2019-03-22T05:33:15.955Z,91.30
2019-03-22T05:35:44.055Z,91.30
2019-03-22T05:38:12.437Z,91.50
2019-03-22T05:40:41.504Z,91.60
2019-03-22T05:43:09.614Z,91.60
2019-03-22T05:45:37.869Z,91.60
2019-03-22T05:48:06.064Z,91.50
2019-03-22T05:50:34.068Z,91.10
2019-03-22T05:53:02.207Z,90.90
2019-03-22T05:55:30.289Z,90.50
2019-03-22T05:57:59.492Z,90.20
2019-03-22T06:00:27.592Z,90.10
2019-03-22T06:02:55.574Z,90.10
2019-03-22T06:05:23.680Z,90.00
2019-03-22T06:07:51.876Z,89.70
2019-03-22T06:10:20.004Z,90.20
2019-03-22T06:12:48.085Z,89.80
2019-03-22T06:15:16.234Z,90.20
2019-03-22T06:17:51.486Z,90.60
2019-03-22T06:20:14.417Z,90.80
2019-03-22T06:22:42.372Z,90.70
2019-03-22T06:25:10.837Z,90.70
2019-03-22T06:27:38.938Z,90.70
2019-03-22T06:30:07.345Z,90.60
2019-03-22T06:32:35.500Z,90.90
2019-03-22T06:35:04.629Z,90.70
2019-03-22T06:37:32.762Z,90.70
2019-03-22T06:40:12.811Z,90.70
2019-03-22T06:42:53.696Z,90.60
2019-03-22T06:45:21.894Z,90.20
2019-03-22T06:47:52.183Z,90.30
2019-03-22T06:50:20.496Z,90.30
2019-03-22T06:52:48.687Z,90.30
2019-03-22T06:55:16.794Z,90.10
2019-03-22T06:57:44.896Z,90.00
2019-03-22T07:00:13.125Z,90.00
2019-03-22T07:02:41.363Z,90.60
2019-03-22T07:05:09.641Z,90.50
2019-03-22T07:07:38.907Z,90.00
2019-03-22T07:10:07.242Z,90.30
2019-03-22T07:12:35.367Z,90.50
2019-03-22T07:15:04.543Z,90.60
2019-03-22T07:17:32.511Z,90.20
2019-03-22T07:20:00.584Z,90.40
2019-03-22T07:22:28.752Z,90.30
2019-03-22T07:24:57.972Z,90.50
2019-03-22T07:27:25.988Z,90.80
2019-03-22T07:29:54.121Z,90.80
2019-03-22T07:32:22.261Z,90.80
2019-03-22T07:34:50.399Z,90.60
2019-03-22T07:37:18.539Z,90.40
2019-03-22T07:39:46.715Z,90.20
2019-03-22T07:42:17.404Z,90.10
2019-03-22T07:44:44.821Z,89.80
2019-03-22T07:47:12.832Z,89.50
2019-03-22T07:49:40.902Z,89.40
2019-03-22T07:52:09.053Z,89.70
2019-03-22T07:54:37.155Z,89.60
2019-03-22T07:57:05.321Z,89.50
2019-03-22T07:59:33.391Z,90.00
2019-03-22T08:02:01.515Z,90.00
2019-03-22T08:04:29.624Z,89.70
2019-03-22T08:06:57.690Z,88.80
2019-03-22T08:09:25.707Z,89.10
2019-03-22T08:11:53.909Z,88.90
2019-03-22T08:14:22.024Z,88.70
2019-03-22T08:16:50.435Z,88.20
2019-03-22T08:19:18.566Z,88.00
2019-03-22T08:21:49.808Z,88.00
2019-03-22T08:24:17.977Z,87.50
2019-03-22T08:26:46.072Z,86.90
2019-03-22T08:29:14.235Z,86.30
2019-03-22T08:31:42.638Z,86.00
2019-03-22T08:34:10.829Z,86.40
2019-03-22T08:36:39.038Z,87.30
2019-03-22T08:39:08.024Z,87.40
2019-03-22T08:41:36.592Z,88.10
2019-03-22T08:44:04.774Z,88.40
2019-03-22T08:46:34.130Z,89.00
2019-03-22T08:49:02.677Z,89.00
2019-03-22T08:51:30.609Z,89.20
2019-03-22T08:53:59.913Z,88.90
2019-03-22T08:56:28.144Z,88.80
2019-03-22T08:58:56.335Z,88.60
2019-03-22T09:01:24.502Z,88.00
2019-03-22T09:03:53.927Z,87.90
2019-03-22T09:06:22.062Z,87.40
2019-03-22T09:08:54.013Z,87.00
2019-03-22T09:11:22.258Z,86.80
2019-03-22T09:13:53.470Z,86.70
2019-03-22T09:16:20.670Z,86.50
2019-03-22T09:18:49.942Z,86.30
2019-03-22T09:21:18.136Z,86.30
2019-03-22T09:23:46.191Z,86.10
2019-03-22T09:26:14.411Z,86.00
2019-03-22T09:28:44.434Z,86.30
2019-03-22T09:31:12.674Z,85.90
2019-03-22T09:33:43.599Z,86.20
2019-03-22T09:36:11.823Z,85.50
2019-03-22T09:38:41.261Z,85.20
2019-03-22T09:41:09.418Z,85.20
2019-03-22T09:43:37.639Z,85.20
2019-03-22T09:46:05.769Z,85.40
2019-03-22T09:48:34.042Z,84.80
2019-03-22T09:51:02.286Z,84.20
2019-03-22T09:53:30.635Z,84.00
2019-03-22T09:55:58.797Z,83.70
2019-03-22T09:58:26.915Z,83.20
2019-03-22T10:00:54.985Z,82.40
2019-03-22T10:03:23.092Z,81.60
2019-03-22T10:05:51.197Z,81.90
2019-03-22T10:08:20.755Z,82.60
2019-03-22T10:10:49.009Z,82.20
2019-03-22T10:13:17.052Z,82.00
2019-03-22T10:15:45.195Z,81.80
2019-03-22T10:18:13.351Z,81.00
2019-03-22T10:20:41.517Z,81.20
2019-03-22T10:23:09.623Z,81.20
2019-03-22T10:25:38.350Z,80.70
2019-03-22T10:28:08.072Z,80.20
2019-03-22T10:30:48.248Z,80.60
2019-03-22T10:33:22.740Z,79.10
2019-03-22T10:35:48.285Z,78.50
2019-03-22T10:38:30.666Z,78.00
2019-03-22T10:40:50.557Z,78.40
2019-03-22T10:43:19.028Z,77.30
2019-03-22T10:45:48.845Z,76.80
2019-03-22T10:48:19.185Z,76.90
2019-03-22T10:50:47.737Z,77.20
2019-03-22T10:53:16.109Z,76.10
2019-03-22T10:55:44.281Z,75.70
2019-03-22T10:58:20.752Z,75.40
2019-03-22T11:00:44.166Z,73.30
2019-03-22T11:03:12.323Z,72.00
2019-03-22T11:05:40.510Z,71.70
2019-03-22T11:08:08.620Z,70.60
2019-03-22T11:10:36.692Z,69.70
2019-03-22T11:13:04.763Z,69.60
2019-03-22T11:15:33.066Z,69.80
2019-03-22T11:18:01.249Z,67.80
2019-03-22T11:20:29.428Z,67.40
2019-03-22T11:22:57.614Z,66.50
2019-03-22T11:25:25.783Z,67.60
2019-03-22T11:27:53.805Z,67.20
2019-03-22T11:30:21.866Z,65.80
2019-03-22T11:32:49.982Z,65.50
2019-03-22T11:35:18.097Z,65.50
2019-03-22T11:37:46.209Z,63.90
2019-03-22T11:40:15.068Z,62.60
2019-03-22T11:42:43.128Z,62.90
2019-03-22T11:45:14.721Z,62.80
2019-03-22T11:47:42.174Z,62.20
2019-03-22T11:50:10.768Z,61.30
2019-03-22T11:52:38.988Z,61.40
2019-03-22T11:55:08.525Z,62.40
2019-03-22T11:57:36.763Z,61.80
2019-03-22T12:00:11.793Z,63.10
2019-03-22T12:02:40.062Z,61.80
2019-03-22T12:05:08.700Z,59.50
2019-03-22T12:07:36.796Z,60.80
2019-03-22T12:10:05.794Z,61.20
2019-03-22T12:12:33.934Z,61.20
2019-03-22T12:15:02.320Z,61.00
2019-03-22T12:17:30.782Z,60.30
2019-03-22T12:19:59.156Z,59.70
2019-03-22T12:22:27.472Z,59.90
2019-03-22T12:24:55.896Z,59.80
2019-03-22T12:27:24.127Z,58.90
2019-03-22T12:29:53.415Z,59.30
2019-03-22T12:32:21.847Z,59.10
2019-03-22T12:34:50.129Z,58.60
2019-03-22T12:37:18.334Z,57.70
2019-03-22T12:39:46.444Z,58.20
2019-03-22T12:42:14.598Z,58.90
2019-03-22T12:44:42.867Z,57.30
2019-03-22T12:47:11.023Z,57.50
2019-03-22T12:49:39.211Z,57.80
2019-03-22T12:52:07.326Z,58.00
2019-03-22T12:54:36.411Z,58.20
2019-03-22T12:57:04.770Z,56.80
2019-03-22T12:59:32.884Z,57.00
2019-03-22T13:02:01.136Z,57.90
2019-03-22T13:04:29.329Z,56.70
2019-03-22T13:06:59.262Z,57.70
2019-03-22T13:09:27.353Z,57.60
2019-03-22T13:11:55.502Z,57.60
2019-03-22T13:16:51.390Z,56.40
2019-03-22T13:19:19.562Z,57.20
2019-03-22T13:21:49.779Z,56.70
2019-03-22T13:24:17.942Z,55.90
2019-03-22T13:26:46.016Z,57.20
2019-03-22T13:29:14.291Z,56.80
2019-03-22T13:31:42.513Z,56.70
2019-03-22T13:34:10.532Z,57.60
2019-03-22T13:36:38.732Z,57.20
2019-03-22T13:39:07.861Z,56.80
2019-03-22T13:41:37.861Z,56.90
2019-03-22T13:44:05.993Z,57.80
2019-03-22T13:46:40.098Z,58.00
2019-03-22T13:49:04.173Z,57.20
2019-03-22T13:51:32.497Z,56.70
2019-03-22T13:54:00.580Z,56.40
2019-03-22T13:56:28.689Z,56.10
2019-03-22T13:58:56.801Z,56.80
2019-03-22T14:01:24.977Z,56.30
2019-03-22T14:03:54.916Z,57.00
2019-03-22T14:06:26.199Z,57.20
2019-03-22T14:08:54.507Z,57.20
2019-03-22T14:11:23.608Z,57.10
2019-03-22T14:13:51.751Z,56.60
2019-03-22T14:16:20.075Z,55.70
2019-03-22T14:18:49.380Z,56.20
2019-03-22T14:21:17.555Z,55.70
2019-03-22T14:23:47.563Z,56.60
2019-03-22T14:26:15.625Z,56.70
2019-03-22T14:28:43.874Z,56.70
2019-03-22T14:31:11.953Z,56.30
2019-03-22T14:33:40.167Z,55.50
2019-03-22T14:36:08.324Z,53.50
2019-03-22T14:38:36.490Z,51.90
2019-03-22T14:41:04.802Z,51.90
2019-03-22T14:43:33.928Z,51.90
2019-03-22T14:46:01.994Z,51.20
2019-03-22T14:48:30.170Z,51.30
2019-03-22T14:50:58.409Z,50.00
2019-03-22T14:53:26.658Z,49.40
2019-03-22T14:55:55.782Z,48.40
2019-03-22T14:58:24.103Z,49.00
2019-03-22T15:00:52.242Z,48.20
2019-03-22T15:03:27.412Z,48.90
2019-03-22T15:05:57.030Z,49.60
2019-03-22T15:08:25.300Z,50.40
2019-03-22T15:10:53.427Z,50.40
2019-03-22T15:13:25.482Z,49.10
2019-03-22T15:16:22.051Z,48.60
2019-03-22T15:19:13.417Z,49.00
2019-03-22T15:21:55.741Z,48.70
2019-03-22T15:24:46.353Z,46.40
2019-03-22T15:27:52.225Z,46.90
2019-03-22T15:30:38.476Z,47.30
2019-03-22T15:33:34.172Z,46.60
2019-03-22T15:36:14.615Z,47.80
2019-03-22T15:39:11.404Z,47.50
2019-03-22T15:41:39.754Z,47.40
2019-03-22T15:44:08.027Z,48.60
2019-03-22T15:46:36.398Z,48.20
2019-03-22T15:49:05.825Z,48.30
2019-03-22T15:51:33.955Z,48.40
2019-03-22T15:54:02.247Z,47.80
2019-03-22T15:56:30.549Z,47.90
2019-03-22T15:58:58.722Z,47.50
2019-03-22T16:01:26.772Z,45.70
2019-03-22T16:03:54.838Z,45.40
2019-03-22T16:06:22.940Z,44.20
2019-03-22T16:08:51.144Z,43.80
2019-03-22T16:11:19.378Z,43.50
2019-03-22T16:13:47.551Z,43.60
2019-03-22T16:16:15.683Z,42.60
2019-03-22T16:18:43.882Z,42.60
2019-03-22T16:21:12.551Z,41.90
2019-03-22T16:23:42.306Z,41.50
2019-03-22T16:26:10.355Z,41.40
2019-03-22T16:28:39.602Z,40.60
2019-03-22T16:31:07.967Z,41.30
2019-03-22T16:33:36.219Z,41.20
2019-03-22T16:36:04.464Z,40.90
2019-03-22T16:38:32.741Z,41.40
2019-03-22T16:41:02.590Z,41.00
2019-03-22T16:43:30.930Z,41.20
2019-03-22T16:45:59.255Z,41.70
2019-03-22T16:48:27.381Z,43.60
2019-03-22T16:50:55.483Z,43.80
2019-03-22T16:53:23.615Z,44.10
2019-03-22T16:55:51.651Z,45.10
2019-03-22T16:58:19.848Z,45.90
2019-03-22T17:00:49.997Z,47.10
2019-03-22T17:03:18.415Z,47.90
2019-03-22T17:05:46.762Z,49.00
2019-03-22T17:08:15.001Z,49.90
2019-03-22T17:10:43.297Z,50.80
2019-03-22T17:13:11.332Z,51.80
2019-03-22T17:15:39.490Z,52.50
2019-03-22T17:18:07.632Z,53.30
2019-03-22T17:20:43.031Z,53.80
2019-03-22T17:23:11.077Z,54.20
2019-03-22T17:25:39.210Z,54.60
2019-03-22T17:28:07.292Z,55.00
2019-03-22T17:30:35.544Z,54.90
2019-03-22T17:33:04.224Z,55.20
2019-03-22T17:35:32.469Z,55.60
2019-03-22T17:38:00.685Z,55.80
2019-03-22T17:40:28.968Z,56.40
2019-03-22T17:42:57.236Z,56.40
2019-03-22T17:45:25.452Z,56.70
2019-03-22T17:47:53.995Z,57.30
2019-03-22T17:50:22.100Z,57.80
2019-03-22T17:52:50.245Z,58.00
2019-03-22T17:55:18.444Z,58.00
2019-03-22T17:57:47.329Z,58.60
2019-03-22T18:00:18.071Z,58.70
2019-03-22T18:02:48.092Z,59.30
2019-03-22T18:05:17.384Z,60.10
2019-03-22T18:07:46.699Z,60.00
2019-03-22T18:10:14.851Z,61.20
2019-03-22T18:12:43.095Z,60.90
2019-03-22T18:15:11.887Z,61.90
2019-03-22T18:17:40.003Z,62.60
2019-03-22T18:20:09.619Z,62.70
2019-03-22T18:22:37.988Z,62.20
2019-03-22T18:25:06.506Z,63.30
2019-03-22T18:27:34.720Z,63.30
2019-03-22T18:30:03.400Z,63.60
2019-03-22T18:32:31.329Z,63.80
2019-03-22T18:35:00.571Z,63.50
2019-03-22T18:37:28.857Z,64.50
2019-03-22T18:39:57.186Z,64.20
2019-03-22T18:42:25.476Z,64.80
2019-03-22T18:44:53.744Z,65.00
2019-03-22T18:47:21.928Z,65.20
2019-03-22T18:49:50.104Z,65.70
2019-03-22T18:52:18.466Z,66.10
2019-03-22T18:54:48.747Z,66.20
2019-03-22T18:57:20.942Z,66.60
2019-03-22T18:59:51.570Z,67.40
2019-03-22T19:02:19.957Z,67.20
2019-03-22T19:04:48.574Z,67.50
2019-03-22T19:07:17.513Z,68.20
2019-03-22T19:09:46.027Z,68.60
2019-03-22T19:12:14.600Z,68.30
2019-03-22T19:14:44.927Z,68.70
2019-03-22T19:17:14.201Z,68.80
2019-03-22T19:19:42.374Z,68.80
2019-03-22T19:22:10.620Z,69.20
2019-03-22T19:24:38.793Z,69.40
2019-03-22T19:27:06.991Z,69.50
2019-03-22T19:29:35.146Z,69.60
2019-03-22T19:32:13.147Z,69.40
2019-03-22T19:34:36.311Z,69.50
2019-03-22T19:37:04.492Z,69.20
2019-03-22T19:39:32.926Z,69.50
2019-03-22T19:42:02.885Z,70.20
2019-03-22T19:44:31.076Z,69.60
2019-03-22T19:46:59.304Z,69.50
2019-03-22T19:49:27.609Z,69.70
2019-03-22T19:51:55.821Z,69.40
2019-03-22T19:54:24.174Z,68.90
2019-03-22T19:56:52.471Z,69.30
2019-03-22T19:59:20.653Z,69.50
2019-03-22T20:01:48.878Z,69.60
2019-03-22T20:04:16.995Z,70.00
2019-03-22T20:06:46.358Z,70.40
2019-03-22T20:09:15.569Z,70.30
2019-03-22T20:11:43.824Z,70.60
2019-03-22T20:14:12.175Z,71.30
2019-03-22T20:16:40.395Z,71.70
2019-03-22T20:21:36.361Z,72.20
2019-03-22T20:24:04.546Z,71.90
2019-03-22T20:26:32.702Z,71.60
2019-03-22T20:29:01.184Z,71.90
2019-03-22T20:31:29.430Z,71.50
2019-03-22T20:33:57.609Z,72.10
2019-03-22T20:36:25.761Z,71.60
2019-03-22T20:38:54.067Z,71.80
2019-03-22T20:41:22.231Z,72.70
2019-03-22T20:43:50.381Z,72.30
2019-03-22T20:46:18.486Z,73.80
2019-03-22T20:48:46.751Z,73.30
2019-03-22T20:51:14.828Z,73.50
2019-03-22T20:53:44.041Z,73.60
2019-03-22T20:56:12.231Z,73.10
2019-03-22T20:58:40.455Z,73.60
2019-03-22T21:01:08.868Z,73.80
2019-03-22T21:03:37.124Z,73.50
2019-03-22T21:06:05.325Z,74.30
2019-03-22T21:08:35.356Z,74.00
2019-03-22T21:11:03.535Z,73.80
2019-03-22T21:13:31.743Z,74.20
2019-03-22T21:15:59.931Z,73.90
2019-03-22T21:18:28.073Z,73.90
2019-03-22T21:20:56.365Z,74.30
2019-03-22T21:23:24.581Z,74.90
2019-03-22T21:25:52.767Z,75.30
2019-03-22T21:28:21.062Z,75.40
2019-03-22T21:30:49.170Z,75.60
2019-03-22T21:33:17.423Z,76.10
2019-03-22T21:35:45.663Z,76.30
2019-03-22T21:38:15.642Z,76.00
2019-03-22T21:40:44.112Z,76.10
2019-03-22T21:43:12.345Z,76.40
2019-03-22T21:45:44.738Z,76.90
2019-03-22T21:48:13.534Z,77.30
2019-03-22T21:50:41.862Z,78.20
2019-03-22T21:53:09.952Z,78.50
2019-03-22T21:55:38.143Z,78.60
2019-03-22T21:58:06.324Z,78.90
2019-03-22T22:00:36.295Z,78.50
2019-03-22T22:03:04.450Z,78.00
2019-03-22T22:05:32.529Z,77.20
2019-03-22T22:08:00.794Z,77.20
2019-03-22T22:10:28.908Z,77.70
2019-03-22T22:12:57.134Z,76.70
2019-03-22T22:15:25.286Z,76.70
2019-03-22T22:17:54.528Z,76.50
2019-03-22T22:20:28.954Z,76.10
2019-03-22T22:22:52.582Z,75.50
2019-03-22T22:25:20.870Z,75.50
2019-03-22T22:27:48.950Z,75.60
2019-03-22T22:30:17.204Z,75.40
2019-03-22T22:32:45.462Z,75.10
2019-03-22T22:35:13.710Z,75.10
2019-03-22T22:37:41.802Z,75.30
2019-03-22T22:40:10.198Z,75.60
2019-03-22T22:42:38.316Z,75.80
2019-03-22T22:45:07.236Z,76.10
2019-03-22T22:47:35.527Z,76.40
2019-03-22T22:50:05.284Z,76.50
2019-03-22T22:52:33.338Z,76.60
2019-03-22T22:55:01.409Z,76.50
2019-03-22T22:57:29.541Z,77.20
2019-03-22T22:59:57.740Z,76.30
2019-03-22T23:02:26.611Z,76.50
2019-03-22T23:04:56.082Z,76.70
2019-03-22T23:07:24.191Z,76.40
2019-03-22T23:09:52.362Z,76.50
2019-03-22T23:12:21.701Z,76.50
2019-03-22T23:14:49.858Z,76.10
2019-03-22T23:17:17.943Z,76.20
2019-03-22T23:19:46.129Z,76.90
2019-03-22T23:22:14.233Z,77.60
2019-03-22T23:24:42.786Z,76.00
2019-03-22T23:27:11.105Z,76.40
2019-03-22T23:29:39.164Z,76.10
2019-03-22T23:32:07.429Z,75.80
2019-03-22T23:34:35.549Z,75.70
2019-03-22T23:37:03.664Z,75.30
2019-03-22T23:39:31.795Z,75.10
2019-03-22T23:42:00.243Z,74.80
2019-03-22T23:44:28.558Z,75.10
2019-03-22T23:46:56.819Z,76.10
2019-03-22T23:49:24.946Z,76.40
2019-03-22T23:51:53.109Z,76.80
2019-03-22T23:54:21.259Z,76.60
2019-03-22T23:56:49.307Z,76.90
2019-03-22T23:59:17.594Z,78.10
